Portada
METAR-TAF:

METAR-TAF

Aeropuertos :

Aeropuerto Internacional Juan Vicente Gómez

San Antonio del Táchira, Venezuela

latitud: 07-51N, longitud: 072-27W, altitud: 377 m

METAR: falta

Hora: 02:01 (06:01 UTC)

Pronóstico

El informe se hizo hace 2 horas y 1 minutos, a las 04:00 UTC
Pronóstico válido del 18 a las 06 UTC al 19 a las 06 UTC
Viento 6 kt del este
Visibilidad 10 km o más
Cielo nuboso a una altura de 1600 ft
Nubes dispersas a una altura de 7000 ft
Evolucionando progresivamente
del 18 a las 06 UTC al 18 a las 10 UTC
Probabilidad 30% :
Temporalmente
del 18 a las 06 UTC al 18 a las 10 UTC
Visibilidad: 8000 m
Escasas nubes a una altura de 1600 ft
Cielo nuboso a una altura de 8000 ft
llovizna

TAF: SVSA 180400Z 1806/1906 09006KT 9999 BKN016 SCT070 TX28/0817 TN20/0809Z BECMG 1806/1810 PROB30 TEMPO 1806/1810 DZ 8000 FEW016 BKN080

Observaciones y pronósticos meteorológicos de más de 4000 aeropuertos (mensajes METAR y TAF).

Los puntos amarillos y rojos representan las estaciones disponibles.

Ponga el ratón en el punto deseado para ver el nombre de la estación.

Haga clic para ver las observaciones y los pronósticos meteorológicos.

Para cambiar el mapa : haga clic en los botones verdes con una cruz de color negro para hacer un zoom, en el botón verde con un guión para alejar o en las flechas verdes para mapas adyacentes.


METAR-TAF: